createdAt,value
2022-11-21T00:01:33.082Z,32.57
2022-11-21T00:04:01.242Z,33.83
2022-11-21T00:06:28.200Z,34.07
2022-11-21T00:08:58.057Z,33.70
2022-11-21T00:11:24.987Z,32.73
2022-11-21T00:13:51.887Z,33.77
2022-11-21T00:16:18.765Z,34.53
2022-11-21T00:18:45.589Z,33.63
2022-11-21T00:21:17.750Z,35.70
2022-11-21T00:23:45.797Z,34.97
2022-11-21T00:26:14.642Z,34.03
2022-11-21T00:28:45.305Z,33.63
2022-11-21T00:31:23.450Z,34.30
2022-11-21T00:33:53.588Z,33.83
2022-11-21T00:36:20.602Z,32.90
2022-11-21T00:38:47.484Z,33.70
2022-11-21T00:41:14.628Z,32.40
2022-11-21T00:43:41.532Z,35.23
2022-11-21T00:46:08.424Z,35.03
2022-11-21T00:48:35.259Z,33.97
2022-11-21T00:51:02.099Z,34.57
2022-11-21T00:53:29.854Z,34.33
2022-11-21T00:55:57.806Z,35.63
2022-11-21T00:58:25.013Z,34.80
2022-11-21T01:00:51.891Z,34.90
2022-11-21T01:03:18.978Z,35.07
2022-11-21T01:05:45.793Z,34.27
2022-11-21T01:08:12.595Z,34.47
2022-11-21T01:10:39.390Z,36.30
2022-11-21T01:13:06.264Z,34.03
2022-11-21T01:15:36.486Z,35.90
2022-11-21T01:18:03.667Z,34.10
2022-11-21T01:20:30.480Z,36.57
2022-11-21T01:22:57.295Z,33.37
2022-11-21T01:25:24.148Z,34.10
2022-11-21T01:27:51.030Z,34.53
2022-11-21T01:30:17.869Z,35.73
2022-11-21T01:32:49.180Z,35.30
2022-11-21T01:35:16.668Z,34.80
2022-11-21T01:37:43.506Z,34.43
2022-11-21T01:40:11.194Z,35.23
2022-11-21T01:43:05.122Z,34.90
2022-11-21T01:45:56.509Z,34.80
2022-11-21T01:48:47.868Z,33.63
2022-11-21T01:51:24.338Z,33.50
2022-11-21T01:54:31.271Z,35.97
2022-11-21T01:57:23.504Z,34.10
2022-11-21T02:00:05.516Z,34.30
2022-11-21T02:02:40.183Z,34.23
2022-11-21T02:05:11.815Z,35.53
2022-11-21T02:07:43.123Z,34.50
2022-11-21T02:10:10.844Z,34.77
2022-11-21T02:12:50.511Z,34.33
2022-11-21T02:15:18.573Z,33.93
2022-11-21T02:17:45.485Z,35.23
2022-11-21T02:20:17.881Z,34.53
2022-11-21T02:22:56.247Z,35.13
2022-11-21T02:25:34.769Z,34.47
2022-11-21T02:28:07.144Z,33.27
2022-11-21T02:30:38.070Z,34.53
2022-11-21T02:33:05.579Z,34.37
2022-11-21T02:35:33.956Z,35.73
2022-11-21T02:38:39.716Z,35.07
2022-11-21T02:41:18.275Z,34.63
2022-11-21T02:43:51.192Z,34.70
2022-11-21T02:46:18.061Z,36.03
2022-11-21T02:48:45.071Z,36.23
2022-11-21T02:51:11.901Z,35.67
2022-11-21T02:53:38.739Z,36.00
2022-11-21T02:56:05.613Z,36.50
2022-11-21T02:58:32.661Z,35.80
2022-11-21T03:00:59.661Z,36.13
2022-11-21T03:03:26.517Z,37.17
2022-11-21T03:05:53.454Z,36.30
2022-11-21T03:08:20.232Z,36.03
2022-11-21T03:10:47.167Z,36.00
2022-11-21T03:13:14.395Z,35.10
2022-11-21T03:15:41.192Z,34.83
2022-11-21T03:18:08.090Z,35.37
2022-11-21T03:20:35.276Z,35.83
2022-11-21T03:23:02.609Z,36.17
2022-11-21T03:25:29.888Z,34.80
2022-11-21T03:27:57.255Z,36.37
2022-11-21T03:30:26.342Z,37.80
2022-11-21T03:32:56.669Z,35.90
2022-11-21T03:35:24.131Z,37.53
2022-11-21T03:37:51.039Z,36.47
2022-11-21T03:40:17.966Z,36.27
2022-11-21T03:42:44.905Z,36.90
2022-11-21T03:45:11.806Z,36.90
2022-11-21T03:47:38.617Z,37.37
2022-11-21T03:50:05.754Z,35.33
2022-11-21T03:52:35.734Z,36.37
2022-11-21T03:55:02.663Z,36.30
2022-11-21T03:57:29.559Z,36.40
2022-11-21T03:59:56.559Z,35.73
2022-11-21T04:02:23.487Z,36.20
2022-11-21T04:04:50.401Z,35.63
2022-11-21T04:07:17.405Z,37.13
2022-11-21T04:09:44.248Z,34.77
2022-11-21T04:12:11.084Z,35.07
2022-11-21T04:14:38.078Z,35.03
2022-11-21T04:17:05.059Z,34.83
2022-11-21T04:19:31.879Z,34.83
2022-11-21T04:21:58.772Z,35.10
2022-11-21T04:24:25.772Z,34.40
2022-11-21T04:26:55.693Z,35.77
2022-11-21T04:29:22.952Z,35.80
2022-11-21T04:31:49.903Z,34.53
2022-11-21T04:34:16.747Z,34.40
2022-11-21T04:36:43.869Z,34.60
2022-11-21T04:39:10.847Z,36.47
2022-11-21T04:41:37.754Z,34.30
2022-11-21T04:44:04.789Z,35.43
2022-11-21T04:46:31.662Z,33.47
2022-11-21T04:48:58.621Z,35.17
2022-11-21T04:51:25.485Z,35.00
2022-11-21T04:53:52.308Z,33.70
2022-11-21T04:56:19.308Z,33.90
2022-11-21T04:58:46.159Z,33.90
2022-11-21T05:01:13.185Z,33.43
2022-11-21T05:03:40.247Z,33.63
2022-11-21T05:06:07.224Z,33.17
2022-11-21T05:08:34.235Z,33.67
2022-11-21T05:11:19.488Z,32.50
2022-11-21T05:13:46.323Z,32.97
2022-11-21T05:16:13.196Z,32.70
2022-11-21T05:18:40.071Z,33.67
2022-11-21T05:21:07.010Z,32.73
2022-11-21T05:23:33.852Z,32.33
2022-11-21T05:26:00.690Z,32.60
2022-11-21T05:28:27.558Z,32.90
2022-11-21T05:30:54.477Z,33.27
2022-11-21T05:33:21.621Z,32.93
2022-11-21T05:35:48.525Z,33.93
2022-11-21T05:38:15.576Z,32.40
2022-11-21T05:40:42.420Z,32.33
2022-11-21T05:43:30.384Z,32.40
2022-11-21T05:45:57.523Z,32.77
2022-11-21T05:48:24.390Z,32.27
2022-11-21T05:50:51.212Z,33.00
2022-11-21T05:53:18.615Z,34.50
2022-11-21T05:55:45.825Z,32.70
2022-11-21T05:58:13.117Z,33.20
2022-11-21T06:00:39.992Z,31.20
2022-11-21T06:03:26.928Z,30.90
2022-11-21T06:06:12.017Z,32.60
2022-11-21T06:08:50.104Z,32.07
2022-11-21T06:11:17.340Z,33.57
2022-11-21T06:13:44.641Z,33.73
2022-11-21T06:16:17.487Z,33.80
2022-11-21T06:18:47.195Z,33.80
2022-11-21T06:21:20.469Z,32.53
2022-11-21T06:23:50.734Z,33.03
2022-11-21T06:26:25.846Z,34.03
2022-11-21T06:28:54.320Z,33.83
2022-11-21T06:31:26.223Z,35.07
2022-11-21T06:33:58.363Z,33.17
2022-11-21T06:36:26.268Z,34.07
2022-11-21T06:38:54.701Z,33.87
2022-11-21T06:41:24.151Z,32.50
2022-11-21T06:43:51.101Z,30.80
2022-11-21T06:46:18.759Z,32.07
2022-11-21T06:48:45.792Z,32.70
2022-11-21T06:51:21.986Z,30.77
2022-11-21T06:53:56.041Z,30.27
2022-11-21T06:56:24.720Z,31.57
2022-11-21T06:58:51.798Z,31.17
2022-11-21T07:01:19.205Z,32.00
2022-11-21T07:03:46.191Z,29.53
2022-11-21T07:06:13.047Z,30.30
2022-11-21T07:08:43.128Z,30.07
2022-11-21T07:11:28.280Z,29.90
2022-11-21T07:13:55.283Z,29.17
2022-11-21T07:16:22.168Z,29.97
2022-11-21T07:18:49.093Z,28.43
2022-11-21T07:21:16.032Z,28.70
2022-11-21T07:23:42.898Z,28.17
2022-11-21T07:26:10.699Z,28.50
2022-11-21T07:28:37.753Z,28.00
2022-11-21T07:31:10.112Z,27.50
2022-11-21T07:33:38.850Z,26.57
2022-11-21T07:36:06.070Z,26.10
2022-11-21T07:38:33.171Z,26.33
2022-11-21T07:41:00.091Z,27.20
2022-11-21T07:43:27.002Z,26.67
2022-11-21T07:45:53.841Z,31.13
2022-11-21T07:48:20.726Z,30.70
2022-11-21T07:50:47.762Z,31.83
2022-11-21T07:53:14.848Z,30.33
2022-11-21T07:55:41.784Z,30.90
2022-11-21T07:58:15.690Z,30.10
2022-11-21T08:00:43.085Z,32.10
2022-11-21T08:03:12.437Z,31.07
2022-11-21T08:05:44.587Z,33.00
2022-11-21T08:08:13.447Z,31.07
2022-11-21T08:10:45.417Z,32.03
2022-11-21T08:13:13.576Z,32.70
2022-11-21T08:15:41.661Z,30.53
2022-11-21T08:18:19.746Z,32.03
2022-11-21T08:20:47.046Z,31.13
2022-11-21T08:23:14.025Z,30.63
2022-11-21T08:25:43.163Z,31.57
2022-11-21T08:28:11.967Z,28.93
2022-11-21T08:30:40.211Z,30.03
2022-11-21T08:33:07.404Z,29.80
2022-11-21T08:35:37.881Z,31.40
2022-11-21T08:38:05.766Z,30.20
2022-11-21T08:40:33.639Z,31.37
2022-11-21T08:43:01.113Z,32.70
2022-11-21T08:45:28.112Z,32.53
2022-11-21T08:47:55.497Z,33.20
2022-11-21T08:50:23.335Z,32.67
2022-11-21T08:52:50.250Z,33.13
2022-11-21T08:55:17.218Z,32.60
2022-11-21T08:57:44.179Z,33.70
2022-11-21T09:00:15.906Z,32.70
2022-11-21T09:02:42.766Z,33.30
2022-11-21T09:05:09.949Z,32.70
2022-11-21T09:07:36.963Z,32.50
2022-11-21T09:10:04.619Z,31.97
2022-11-21T09:12:31.639Z,33.07
2022-11-21T09:15:17.270Z,31.13
2022-11-21T09:18:02.579Z,32.93
2022-11-21T09:20:29.889Z,32.97
2022-11-21T09:22:56.697Z,32.70
2022-11-21T09:25:23.679Z,32.97
2022-11-21T09:27:50.565Z,31.57
2022-11-21T09:30:22.089Z,31.90
2022-11-21T09:32:49.060Z,31.90
2022-11-21T09:35:28.588Z,31.83
2022-11-21T09:37:55.599Z,32.97
2022-11-21T09:40:23.094Z,32.83
2022-11-21T09:43:19.993Z,32.43
2022-11-21T09:45:50.725Z,31.03
2022-11-21T09:49:00.338Z,32.73
2022-11-21T09:51:31.065Z,29.63
2022-11-21T09:54:23.221Z,31.47
2022-11-21T09:56:52.677Z,30.17
2022-11-21T09:59:42.478Z,30.43
2022-11-21T10:02:16.950Z,30.00
2022-11-21T10:04:47.190Z,29.37
2022-11-21T10:07:25.347Z,28.90
2022-11-21T10:10:39.624Z,28.23
2022-11-21T10:13:27.593Z,27.43
2022-11-21T10:16:21.402Z,27.50
2022-11-21T10:19:06.967Z,26.77
2022-11-21T10:21:45.463Z,26.03
2022-11-21T10:24:32.065Z,27.10
2022-11-21T10:27:18.800Z,27.40
2022-11-21T10:30:01.147Z,25.50
2022-11-21T10:32:35.660Z,24.80
2022-11-21T10:35:16.134Z,23.43
2022-11-21T10:37:49.916Z,23.97
2022-11-21T10:40:41.063Z,24.23
2022-11-21T10:43:44.892Z,23.27
2022-11-21T10:46:11.880Z,22.30
2022-11-21T10:48:38.762Z,22.97
2022-11-21T10:51:30.435Z,22.90
2022-11-21T10:54:27.827Z,23.07
2022-11-21T10:56:59.514Z,23.53
2022-11-21T10:59:31.111Z,23.03
2022-11-21T11:02:24.148Z,23.93
2022-11-21T11:05:18.891Z,23.47
2022-11-21T11:08:06.759Z,23.13
2022-11-21T11:10:38.162Z,24.80
2022-11-21T11:13:45.844Z,23.63
2022-11-21T11:16:16.249Z,22.80
2022-11-21T11:19:08.716Z,22.70
2022-11-21T11:21:46.094Z,21.30
2022-11-21T11:24:13.122Z,21.90
2022-11-21T11:26:49.879Z,21.20
2022-11-21T11:29:44.377Z,21.97
2022-11-21T11:32:21.523Z,21.33
2022-11-21T11:35:17.742Z,20.47
2022-11-21T11:38:00.403Z,21.10
2022-11-21T11:40:32.765Z,20.70
2022-11-21T11:43:25.390Z,21.27
2022-11-21T11:46:36.249Z,20.93
2022-11-21T11:49:24.602Z,21.27
2022-11-21T11:51:59.437Z,21.53
2022-11-21T11:54:50.602Z,20.67
2022-11-21T11:57:18.985Z,19.50
2022-11-21T11:59:53.273Z,19.10
2022-11-21T12:02:20.194Z,19.70
2022-11-21T12:04:52.232Z,20.40
2022-11-21T12:08:33.151Z,18.43
2022-11-21T12:11:09.742Z,19.47
2022-11-21T12:13:37.335Z,19.27
2022-11-21T12:16:13.777Z,20.60
2022-11-21T12:18:55.891Z,19.37
2022-11-21T12:21:23.573Z,19.77
2022-11-21T12:23:51.493Z,19.47
2022-11-21T12:26:33.525Z,19.60
2022-11-21T12:29:00.323Z,21.27
2022-11-21T12:31:47.197Z,20.40
2022-11-21T12:34:37.410Z,20.90
2022-11-21T12:37:38.472Z,20.77
2022-11-21T12:40:17.194Z,21.10
2022-11-21T12:42:58.859Z,20.83
2022-11-21T12:45:39.110Z,21.00
2022-11-21T12:48:43.845Z,21.03
2022-11-21T12:51:50.727Z,21.93
2022-11-21T12:54:42.604Z,21.90
2022-11-21T12:57:17.658Z,21.20
2022-11-21T13:00:14.921Z,21.53
2022-11-21T13:03:03.564Z,21.57
2022-11-21T13:05:36.036Z,22.47
2022-11-21T13:08:09.397Z,22.83
2022-11-21T13:10:38.201Z,21.50
2022-11-21T13:13:23.800Z,22.43
2022-11-21T13:16:36.651Z,23.57
2022-11-21T13:19:23.494Z,21.90
2022-11-21T13:21:53.763Z,21.70
2022-11-21T13:24:45.393Z,22.73
2022-11-21T13:27:38.796Z,23.57
2022-11-21T13:30:11.760Z,21.83
2022-11-21T13:32:46.401Z,22.37
2022-11-21T13:35:19.513Z,23.73
2022-11-21T13:37:49.765Z,23.03
2022-11-21T13:40:29.998Z,24.53
2022-11-21T13:43:35.664Z,22.67
2022-11-21T13:45:58.904Z,22.60
2022-11-21T13:48:28.752Z,23.43
2022-11-21T13:51:23.212Z,23.17
2022-11-21T13:54:28.347Z,24.13
2022-11-21T13:57:09.437Z,22.60
2022-11-21T14:00:03.460Z,23.13
2022-11-21T14:02:44.455Z,24.27
2022-11-21T14:05:18.717Z,23.07
2022-11-21T14:07:47.937Z,22.93
2022-11-21T14:10:34.007Z,24.13
2022-11-21T14:13:03.419Z,24.83
2022-11-21T14:15:45.623Z,24.83
2022-11-21T14:18:32.346Z,24.00
2022-11-21T14:21:01.260Z,24.67
2022-11-21T14:23:31.303Z,25.90
2022-11-21T14:26:19.601Z,27.17
2022-11-21T14:28:46.911Z,26.80
2022-11-21T14:31:14.650Z,26.57
2022-11-21T14:33:47.300Z,27.57
2022-11-21T14:36:24.511Z,28.27
2022-11-21T14:39:35.214Z,27.80
2022-11-21T14:42:16.411Z,29.30
2022-11-21T14:44:45.946Z,28.47
2022-11-21T14:47:25.786Z,30.23
2022-11-21T14:50:07.135Z,29.07
2022-11-21T14:52:34.869Z,31.03
2022-11-21T14:57:57.529Z,30.20
2022-11-21T15:03:22.982Z,32.37
2022-11-21T15:06:07.294Z,33.07
2022-11-21T15:11:28.395Z,32.57
2022-11-21T15:14:15.508Z,33.83
2022-11-21T15:16:48.105Z,32.27
2022-11-21T15:19:33.468Z,31.73
2022-11-21T15:22:04.273Z,32.87
2022-11-21T15:24:33.650Z,32.33
2022-11-21T15:27:00.985Z,33.57
2022-11-21T15:29:30.321Z,32.17
2022-11-21T15:32:08.670Z,30.93
2022-11-21T15:34:39.396Z,30.90
2022-11-21T15:37:20.736Z,31.33
2022-11-21T15:39:50.577Z,32.30
2022-11-21T15:42:32.839Z,32.23
2022-11-21T15:45:02.131Z,30.50
2022-11-21T15:47:29.088Z,32.63
2022-11-21T15:49:56.128Z,31.97
2022-11-21T15:52:23.772Z,30.77
2022-11-21T15:54:50.975Z,30.53
2022-11-21T15:59:49.652Z,30.80
2022-11-21T16:02:16.793Z,31.93
2022-11-21T16:04:44.802Z,31.87
2022-11-21T16:07:11.674Z,30.00
2022-11-21T16:09:40.883Z,30.60
2022-11-21T16:12:09.309Z,31.97
2022-11-21T16:14:36.371Z,32.17
2022-11-21T16:17:03.371Z,31.33
2022-11-21T16:19:30.567Z,31.83
2022-11-21T16:21:57.777Z,30.70
2022-11-21T16:24:24.643Z,30.60
2022-11-21T16:26:55.452Z,31.27
2022-11-21T16:29:22.409Z,31.03
2022-11-21T16:31:50.809Z,31.57
2022-11-21T16:34:20.759Z,33.67
2022-11-21T16:36:47.556Z,32.13
2022-11-21T16:39:18.173Z,31.90
2022-11-21T16:41:47.354Z,29.87
2022-11-21T16:44:16.266Z,32.17
2022-11-21T16:46:47.321Z,30.70
2022-11-21T16:49:14.341Z,30.40
2022-11-21T16:58:16.485Z,29.57
2022-11-21T17:00:46.392Z,31.00
2022-11-21T17:03:17.094Z,29.87
2022-11-21T17:05:44.008Z,31.03
2022-11-21T17:08:10.958Z,31.80
2022-11-21T17:10:51.215Z,31.20
2022-11-21T17:24:59.851Z,31.07
2022-11-21T17:27:27.140Z,31.83
2022-11-21T17:29:54.496Z,32.00
2022-11-21T17:32:31.996Z,32.97
2022-11-21T17:35:21.723Z,31.57
2022-11-21T17:38:06.177Z,31.50
2022-11-21T17:40:37.649Z,31.83
2022-11-21T17:43:05.168Z,30.17
2022-11-21T17:46:09.581Z,32.70
2022-11-21T17:49:09.226Z,31.13
2022-11-21T17:51:56.643Z,31.97
2022-11-21T17:54:37.700Z,32.30
2022-11-21T17:57:04.911Z,32.43
2022-11-21T17:59:34.850Z,33.57
2022-11-21T18:02:02.189Z,32.03
2022-11-21T18:04:42.328Z,32.90
2022-11-21T18:07:13.040Z,33.53
2022-11-21T18:09:40.283Z,33.40
2022-11-21T18:12:10.678Z,32.70
2022-11-21T18:14:41.036Z,32.97
2022-11-21T18:17:08.252Z,33.30
2022-11-21T18:19:35.549Z,32.30
2022-11-21T18:22:22.543Z,32.90
2022-11-21T18:25:17.331Z,32.27
2022-11-21T18:27:54.501Z,32.93
2022-11-21T18:30:21.936Z,32.03
2022-11-21T18:32:50.264Z,32.73
2022-11-21T18:35:20.646Z,33.93
2022-11-21T18:37:53.323Z,32.27
2022-11-21T18:40:26.182Z,32.60
2022-11-21T18:42:55.946Z,31.83
2022-11-21T18:45:26.422Z,31.83
2022-11-21T18:47:57.490Z,29.77
2022-11-21T18:50:24.845Z,30.97
2022-11-21T18:52:53.411Z,30.87
2022-11-21T18:55:22.621Z,30.57
2022-11-21T18:57:50.793Z,29.30
2022-11-21T19:00:18.120Z,30.33
2022-11-21T19:02:48.672Z,31.50
2022-11-21T19:05:20.312Z,31.03
2022-11-21T19:07:56.404Z,30.83
2022-11-21T19:10:47.057Z,30.80
2022-11-21T19:13:14.561Z,29.93
2022-11-21T19:15:43.908Z,29.43
2022-11-21T19:18:14.246Z,28.47
2022-11-21T19:20:45.075Z,28.70
2022-11-21T19:23:34.031Z,29.67
2022-11-21T19:26:02.952Z,29.70
2022-11-21T19:28:31.095Z,29.13
2022-11-21T19:31:27.145Z,29.70
2022-11-21T19:34:29.866Z,29.37
2022-11-21T19:37:53.719Z,28.67
2022-11-21T19:41:24.936Z,27.97
2022-11-21T19:44:03.213Z,29.43
2022-11-21T19:46:40.983Z,29.43
2022-11-21T19:49:28.334Z,30.73
2022-11-21T19:54:47.893Z,29.97
2022-11-21T19:57:47.339Z,30.17
2022-11-21T20:00:22.955Z,30.03
2022-11-21T20:03:01.384Z,30.47
2022-11-21T20:10:30.728Z,30.03
2022-11-21T20:13:04.610Z,30.60
2022-11-21T20:15:34.555Z,30.83
2022-11-21T20:18:16.440Z,31.73
2022-11-21T20:20:52.314Z,29.20
2022-11-21T20:23:21.794Z,30.30
2022-11-21T20:25:52.237Z,28.90
2022-11-21T20:28:19.505Z,29.10
2022-11-21T20:30:51.894Z,27.53
2022-11-21T20:33:18.862Z,29.50
2022-11-21T20:35:45.747Z,30.20
2022-11-21T20:41:09.246Z,28.17
2022-11-21T20:44:03.126Z,27.43
2022-11-21T20:46:27.486Z,38.28
2022-11-21T20:49:32.749Z,31.00
2022-11-21T20:54:46.990Z,28.27
2022-11-21T20:57:15.553Z,28.03
2022-11-21T20:59:43.083Z,27.37
2022-11-21T21:02:14.166Z,27.97
2022-11-21T21:04:41.827Z,27.53
2022-11-21T21:07:08.865Z,27.63
2022-11-21T21:09:35.832Z,26.67
2022-11-21T21:12:02.767Z,27.50
2022-11-21T21:14:29.818Z,29.07
2022-11-21T21:16:56.990Z,29.07
2022-11-21T21:19:23.994Z,32.43
2022-11-21T21:21:51.073Z,28.37
2022-11-21T21:24:18.524Z,27.40
2022-11-21T21:26:47.993Z,28.93
2022-11-21T21:29:18.752Z,29.20
2022-11-21T21:31:50.979Z,28.03
2022-11-21T21:34:19.929Z,27.13
2022-11-21T21:36:47.224Z,28.00
2022-11-21T21:39:14.301Z,27.70
2022-11-21T21:41:44.609Z,27.70
2022-11-21T21:44:12.424Z,27.57
2022-11-21T21:46:39.675Z,28.03
2022-11-21T21:49:06.624Z,26.83
2022-11-21T21:51:33.667Z,26.97
2022-11-21T21:54:00.693Z,25.67
2022-11-21T21:56:28.944Z,27.03
2022-11-21T21:58:57.903Z,25.90
2022-11-21T22:01:30.509Z,26.50
2022-11-21T22:03:59.469Z,25.63
2022-11-21T22:06:27.210Z,26.23
2022-11-21T22:08:55.185Z,27.10
2022-11-21T22:11:27.306Z,26.37
2022-11-21T22:13:59.916Z,26.03
2022-11-21T22:16:27.257Z,25.60
2022-11-21T22:18:54.247Z,24.30
2022-11-21T22:21:34.661Z,24.37
2022-11-21T22:26:50.519Z,24.57
2022-11-21T22:29:17.475Z,25.90
2022-11-21T22:31:44.370Z,24.87
2022-11-21T22:34:15.689Z,24.73
2022-11-21T22:36:43.412Z,25.37
2022-11-21T22:39:10.272Z,24.33
2022-11-21T22:41:37.118Z,24.90
2022-11-21T22:44:04.059Z,24.57
2022-11-21T22:46:31.329Z,23.83
2022-11-21T22:48:59.029Z,24.50
2022-11-21T22:51:29.567Z,24.10
2022-11-21T22:53:57.084Z,23.20
2022-11-21T22:56:25.027Z,25.40
2022-11-21T22:58:52.115Z,24.40
2022-11-21T23:01:24.427Z,23.20
2022-11-21T23:03:52.547Z,24.70
2022-11-21T23:06:23.693Z,24.57
2022-11-21T23:08:52.353Z,24.30
2022-11-21T23:11:25.840Z,24.43
2022-11-21T23:13:53.722Z,23.77
2022-11-21T23:16:21.270Z,23.20
2022-11-21T23:18:48.866Z,24.23
2022-11-21T23:21:15.777Z,23.63
2022-11-21T23:23:44.030Z,22.87
2022-11-21T23:26:11.489Z,23.40
2022-11-21T23:28:38.367Z,22.83
2022-11-21T23:31:05.304Z,23.93
2022-11-21T23:33:32.082Z,23.10
2022-11-21T23:35:59.128Z,23.37
2022-11-21T23:38:26.683Z,24.00
2022-11-21T23:40:53.636Z,23.47
2022-11-21T23:43:20.540Z,23.20
2022-11-21T23:45:51.965Z,22.77
2022-11-21T23:48:19.870Z,23.77
2022-11-21T23:50:50.945Z,23.57
2022-11-21T23:53:19.163Z,22.90
2022-11-21T23:55:46.239Z,23.23
2022-11-21T23:58:13.105Z,23.80
